sensor_id;sensor_type;location;lat;lon;timestamp;P1;durP1;ratioP1;P2;durP2;ratioP2
82399;SDS011;72039;48.812;8.198;2024-01-06T00:01:29;9.65;;;3.67;;
82399;SDS011;72039;48.812;8.198;2024-01-06T00:03:57;9.35;;;3.97;;
82399;SDS011;72039;48.812;8.198;2024-01-06T00:06:25;11.40;;;4.10;;
82399;SDS011;72039;48.812;8.198;2024-01-06T00:08:51;7.30;;;3.85;;
82399;SDS011;72039;48.812;8.198;2024-01-06T00:11:22;9.10;;;4.05;;
82399;SDS011;72039;48.812;8.198;2024-01-06T00:13:52;5.00;;;3.20;;
82399;SDS011;72039;48.812;8.198;2024-01-06T00:16:18;5.85;;;3.08;;
82399;SDS011;72039;48.812;8.198;2024-01-06T00:18:44;6.15;;;3.20;;
82399;SDS011;72039;48.812;8.198;2024-01-06T00:21:10;8.15;;;3.38;;
82399;SDS011;72039;48.812;8.198;2024-01-06T00:23:36;8.57;;;3.40;;
82399;SDS011;72039;48.812;8.198;2024-01-06T00:26:01;9.43;;;3.80;;
82399;SDS011;72039;48.812;8.198;2024-01-06T00:28:27;12.88;;;4.40;;
82399;SDS011;72039;48.812;8.198;2024-01-06T00:30:52;7.50;;;3.45;;
82399;SDS011;72039;48.812;8.198;2024-01-06T00:33:20;6.40;;;3.38;;
82399;SDS011;72039;48.812;8.198;2024-01-06T00:35:48;6.40;;;2.85;;
82399;SDS011;72039;48.812;8.198;2024-01-06T00:38:13;7.68;;;3.40;;
82399;SDS011;72039;48.812;8.198;2024-01-06T00:40:39;7.28;;;3.47;;
82399;SDS011;72039;48.812;8.198;2024-01-06T00:43:04;6.20;;;2.85;;
82399;SDS011;72039;48.812;8.198;2024-01-06T00:45:29;10.93;;;3.10;;
82399;SDS011;72039;48.812;8.198;2024-01-06T00:47:56;6.93;;;3.00;;
82399;SDS011;72039;48.812;8.198;2024-01-06T00:50:24;5.75;;;2.80;;
82399;SDS011;72039;48.812;8.198;2024-01-06T00:52:49;10.30;;;2.30;;
82399;SDS011;72039;48.812;8.198;2024-01-06T00:55:18;6.57;;;2.50;;
82399;SDS011;72039;48.812;8.198;2024-01-06T00:57:44;5.40;;;2.63;;
82399;SDS011;72039;48.812;8.198;2024-01-06T01:00:10;11.82;;;3.85;;
82399;SDS011;72039;48.812;8.198;2024-01-06T01:02:38;8.48;;;2.72;;
82399;SDS011;72039;48.812;8.198;2024-01-06T01:05:03;4.78;;;2.15;;
82399;SDS011;72039;48.812;8.198;2024-01-06T01:07:29;5.75;;;2.50;;
82399;SDS011;72039;48.812;8.198;2024-01-06T01:09:55;5.43;;;2.55;;
82399;SDS011;72039;48.812;8.198;2024-01-06T01:12:21;5.82;;;2.45;;
82399;SDS011;72039;48.812;8.198;2024-01-06T01:14:50;3.88;;;2.58;;
82399;SDS011;72039;48.812;8.198;2024-01-06T01:17:16;6.35;;;2.60;;
82399;SDS011;72039;48.812;8.198;2024-01-06T01:19:46;5.78;;;2.88;;
82399;SDS011;72039;48.812;8.198;2024-01-06T01:22:14;7.07;;;2.90;;
82399;SDS011;72039;48.812;8.198;2024-01-06T01:24:44;7.35;;;4.28;;
82399;SDS011;72039;48.812;8.198;2024-01-06T01:27:12;55.67;;;19.80;;
82399;SDS011;72039;48.812;8.198;2024-01-06T01:29:38;21.88;;;8.30;;
82399;SDS011;72039;48.812;8.198;2024-01-06T01:32:06;48.83;;;20.02;;
82399;SDS011;72039;48.812;8.198;2024-01-06T01:34:34;24.60;;;9.85;;
82399;SDS011;72039;48.812;8.198;2024-01-06T01:37:02;9.30;;;4.32;;
82399;SDS011;72039;48.812;8.198;2024-01-06T01:39:30;7.10;;;3.42;;
82399;SDS011;72039;48.812;8.198;2024-01-06T01:41:55;5.90;;;2.60;;
82399;SDS011;72039;48.812;8.198;2024-01-06T01:44:21;6.90;;;2.90;;
82399;SDS011;72039;48.812;8.198;2024-01-06T01:46:47;6.95;;;4.18;;
82399;SDS011;72039;48.812;8.198;2024-01-06T01:49:17;10.30;;;4.82;;
82399;SDS011;72039;48.812;8.198;2024-01-06T01:51:43;10.13;;;4.22;;
82399;SDS011;72039;48.812;8.198;2024-01-06T01:54:13;6.82;;;2.85;;
82399;SDS011;72039;48.812;8.198;2024-01-06T01:56:39;6.22;;;2.70;;
82399;SDS011;72039;48.812;8.198;2024-01-06T01:59:05;5.38;;;2.50;;
82399;SDS011;72039;48.812;8.198;2024-01-06T02:01:33;6.20;;;2.58;;
82399;SDS011;72039;48.812;8.198;2024-01-06T02:04:03;5.75;;;2.60;;
82399;SDS011;72039;48.812;8.198;2024-01-06T02:06:33;4.65;;;2.53;;
82399;SDS011;72039;48.812;8.198;2024-01-06T02:08:59;6.75;;;2.40;;
82399;SDS011;72039;48.812;8.198;2024-01-06T02:11:24;7.90;;;2.28;;
82399;SDS011;72039;48.812;8.198;2024-01-06T02:13:51;7.18;;;2.50;;
82399;SDS011;72039;48.812;8.198;2024-01-06T02:16:16;8.27;;;2.42;;
82399;SDS011;72039;48.812;8.198;2024-01-06T02:18:42;4.25;;;2.50;;
82399;SDS011;72039;48.812;8.198;2024-01-06T02:21:09;6.72;;;2.22;;
82399;SDS011;72039;48.812;8.198;2024-01-06T02:23:37;8.75;;;2.60;;
82399;SDS011;72039;48.812;8.198;2024-01-06T02:26:04;5.68;;;2.20;;
82399;SDS011;72039;48.812;8.198;2024-01-06T02:28:30;9.15;;;2.33;;
82399;SDS011;72039;48.812;8.198;2024-01-06T02:30:55;3.88;;;2.10;;
82399;SDS011;72039;48.812;8.198;2024-01-06T02:33:25;9.88;;;2.38;;
82399;SDS011;72039;48.812;8.198;2024-01-06T02:35:51;4.43;;;2.15;;
82399;SDS011;72039;48.812;8.198;2024-01-06T02:38:16;10.25;;;2.65;;
82399;SDS011;72039;48.812;8.198;2024-01-06T02:40:44;6.55;;;2.35;;
82399;SDS011;72039;48.812;8.198;2024-01-06T02:43:12;8.93;;;2.83;;
82399;SDS011;72039;48.812;8.198;2024-01-06T02:45:40;6.75;;;2.53;;
82399;SDS011;72039;48.812;8.198;2024-01-06T02:48:08;8.07;;;2.47;;
82399;SDS011;72039;48.812;8.198;2024-01-06T02:50:33;7.05;;;2.60;;
82399;SDS011;72039;48.812;8.198;2024-01-06T02:53:03;9.27;;;2.90;;
82399;SDS011;72039;48.812;8.198;2024-01-06T02:55:28;6.20;;;2.05;;
82399;SDS011;72039;48.812;8.198;2024-01-06T02:57:55;8.30;;;2.53;;
82399;SDS011;72039;48.812;8.198;2024-01-06T03:00:20;5.05;;;2.50;;
82399;SDS011;72039;48.812;8.198;2024-01-06T03:02:46;10.93;;;3.28;;
82399;SDS011;72039;48.812;8.198;2024-01-06T03:05:11;5.47;;;2.10;;
82399;SDS011;72039;48.812;8.198;2024-01-06T03:07:36;12.48;;;2.67;;
82399;SDS011;72039;48.812;8.198;2024-01-06T03:10:02;7.80;;;2.17;;
82399;SDS011;72039;48.812;8.198;2024-01-06T03:12:29;7.35;;;2.45;;
82399;SDS011;72039;48.812;8.198;2024-01-06T03:14:55;6.80;;;2.67;;
82399;SDS011;72039;48.812;8.198;2024-01-06T03:17:20;10.75;;;2.38;;
82399;SDS011;72039;48.812;8.198;2024-01-06T03:19:46;8.40;;;2.60;;
82399;SDS011;72039;48.812;8.198;2024-01-06T03:22:11;7.68;;;2.10;;
82399;SDS011;72039;48.812;8.198;2024-01-06T03:24:37;6.10;;;2.03;;
82399;SDS011;72039;48.812;8.198;2024-01-06T03:27:04;4.40;;;2.22;;
82399;SDS011;72039;48.812;8.198;2024-01-06T03:29:30;5.40;;;2.97;;
82399;SDS011;72039;48.812;8.198;2024-01-06T03:31:55;6.70;;;2.63;;
82399;SDS011;72039;48.812;8.198;2024-01-06T03:34:20;6.95;;;2.58;;
82399;SDS011;72039;48.812;8.198;2024-01-06T03:36:46;5.38;;;2.40;;
82399;SDS011;72039;48.812;8.198;2024-01-06T03:39:13;5.45;;;2.40;;
82399;SDS011;72039;48.812;8.198;2024-01-06T03:41:41;4.65;;;2.20;;
82399;SDS011;72039;48.812;8.198;2024-01-06T03:44:09;5.90;;;2.17;;
82399;SDS011;72039;48.812;8.198;2024-01-06T03:46:37;7.18;;;2.22;;
82399;SDS011;72039;48.812;8.198;2024-01-06T03:49:02;7.40;;;2.17;;
82399;SDS011;72039;48.812;8.198;2024-01-06T03:51:28;6.70;;;2.67;;
82399;SDS011;72039;48.812;8.198;2024-01-06T03:53:54;5.30;;;2.20;;
82399;SDS011;72039;48.812;8.198;2024-01-06T03:56:19;7.13;;;2.50;;
82399;SDS011;72039;48.812;8.198;2024-01-06T03:58:45;6.40;;;2.03;;
82399;SDS011;72039;48.812;8.198;2024-01-06T04:01:13;5.65;;;2.42;;
82399;SDS011;72039;48.812;8.198;2024-01-06T04:03:41;12.23;;;2.58;;
82399;SDS011;72039;48.812;8.198;2024-01-06T04:06:06;7.60;;;2.83;;
82399;SDS011;72039;48.812;8.198;2024-01-06T04:08:35;8.18;;;2.40;;
82399;SDS011;72039;48.812;8.198;2024-01-06T04:11:02;7.32;;;2.90;;
82399;SDS011;72039;48.812;8.198;2024-01-06T04:13:32;9.75;;;3.00;;
82399;SDS011;72039;48.812;8.198;2024-01-06T04:15:57;6.68;;;2.92;;
82399;SDS011;72039;48.812;8.198;2024-01-06T04:18:23;7.78;;;2.90;;
82399;SDS011;72039;48.812;8.198;2024-01-06T04:20:53;8.75;;;3.28;;
82399;SDS011;72039;48.812;8.198;2024-01-06T04:23:18;5.95;;;2.72;;
82399;SDS011;72039;48.812;8.198;2024-01-06T04:25:46;9.63;;;2.80;;
82399;SDS011;72039;48.812;8.198;2024-01-06T04:28:14;5.38;;;2.60;;
82399;SDS011;72039;48.812;8.198;2024-01-06T04:30:40;8.57;;;3.20;;
82399;SDS011;72039;48.812;8.198;2024-01-06T04:33:07;10.45;;;3.53;;
82399;SDS011;72039;48.812;8.198;2024-01-06T04:35:33;13.77;;;4.07;;
82399;SDS011;72039;48.812;8.198;2024-01-06T04:37:58;17.48;;;4.20;;
82399;SDS011;72039;48.812;8.198;2024-01-06T04:40:24;14.02;;;3.50;;
82399;SDS011;72039;48.812;8.198;2024-01-06T04:42:51;13.63;;;4.85;;
82399;SDS011;72039;48.812;8.198;2024-01-06T04:45:17;8.80;;;3.70;;
82399;SDS011;72039;48.812;8.198;2024-01-06T04:47:44;6.93;;;3.58;;
82399;SDS011;72039;48.812;8.198;2024-01-06T04:50:16;3.38;;;1.98;;
82399;SDS011;72039;48.812;8.198;2024-01-06T04:52:42;7.63;;;2.88;;
82399;SDS011;72039;48.812;8.198;2024-01-06T04:55:13;6.78;;;2.30;;
82399;SDS011;72039;48.812;8.198;2024-01-06T04:57:38;5.50;;;2.28;;
82399;SDS011;72039;48.812;8.198;2024-01-06T05:02:53;8.25;;;2.63;;
82399;SDS011;72039;48.812;8.198;2024-01-06T05:05:20;8.25;;;3.00;;
82399;SDS011;72039;48.812;8.198;2024-01-06T05:07:46;7.43;;;2.88;;
82399;SDS011;72039;48.812;8.198;2024-01-06T05:10:11;4.57;;;2.30;;
82399;SDS011;72039;48.812;8.198;2024-01-06T05:12:36;5.30;;;2.70;;
82399;SDS011;72039;48.812;8.198;2024-01-06T05:15:02;8.70;;;2.22;;
82399;SDS011;72039;48.812;8.198;2024-01-06T05:17:28;6.65;;;2.38;;
82399;SDS011;72039;48.812;8.198;2024-01-06T05:19:53;6.43;;;2.33;;
82399;SDS011;72039;48.812;8.198;2024-01-06T05:22:20;6.80;;;2.78;;
82399;SDS011;72039;48.812;8.198;2024-01-06T05:24:48;7.28;;;2.85;;
82399;SDS011;72039;48.812;8.198;2024-01-06T05:27:18;8.55;;;2.83;;
82399;SDS011;72039;48.812;8.198;2024-01-06T05:29:44;11.93;;;3.65;;
82399;SDS011;72039;48.812;8.198;2024-01-06T05:32:10;6.78;;;2.45;;
82399;SDS011;72039;48.812;8.198;2024-01-06T05:34:35;8.55;;;2.83;;
82399;SDS011;72039;48.812;8.198;2024-01-06T05:37:03;5.97;;;2.55;;
82399;SDS011;72039;48.812;8.198;2024-01-06T05:39:28;7.95;;;2.42;;
82399;SDS011;72039;48.812;8.198;2024-01-06T05:41:54;8.38;;;2.50;;
82399;SDS011;72039;48.812;8.198;2024-01-06T05:44:21;11.02;;;2.78;;
82399;SDS011;72039;48.812;8.198;2024-01-06T05:46:49;10.43;;;2.78;;
82399;SDS011;72039;48.812;8.198;2024-01-06T05:49:16;5.40;;;2.50;;
82399;SDS011;72039;48.812;8.198;2024-01-06T05:51:45;7.20;;;2.95;;
82399;SDS011;72039;48.812;8.198;2024-01-06T05:54:11;6.72;;;2.55;;
82399;SDS011;72039;48.812;8.198;2024-01-06T05:56:39;6.80;;;2.50;;
82399;SDS011;72039;48.812;8.198;2024-01-06T05:59:05;5.25;;;2.05;;
82399;SDS011;72039;48.812;8.198;2024-01-06T06:01:30;5.78;;;2.30;;
82399;SDS011;72039;48.812;8.198;2024-01-06T06:03:56;8.13;;;2.80;;
82399;SDS011;72039;48.812;8.198;2024-01-06T06:06:21;7.43;;;3.03;;
82399;SDS011;72039;48.812;8.198;2024-01-06T06:08:48;6.95;;;2.70;;
82399;SDS011;72039;48.812;8.198;2024-01-06T06:11:14;9.23;;;3.13;;
82399;SDS011;72039;48.812;8.198;2024-01-06T06:13:40;5.57;;;2.65;;
82399;SDS011;72039;48.812;8.198;2024-01-06T06:16:11;8.10;;;3.03;;
82399;SDS011;72039;48.812;8.198;2024-01-06T06:18:39;6.72;;;3.05;;
82399;SDS011;72039;48.812;8.198;2024-01-06T06:21:07;5.35;;;2.67;;
82399;SDS011;72039;48.812;8.198;2024-01-06T06:23:33;6.53;;;2.50;;
82399;SDS011;72039;48.812;8.198;2024-01-06T06:26:01;4.82;;;2.00;;
82399;SDS011;72039;48.812;8.198;2024-01-06T06:28:29;8.45;;;2.92;;
82399;SDS011;72039;48.812;8.198;2024-01-06T06:30:55;4.82;;;2.30;;
82399;SDS011;72039;48.812;8.198;2024-01-06T06:33:26;9.45;;;2.63;;
82399;SDS011;72039;48.812;8.198;2024-01-06T06:35:51;4.93;;;2.40;;
82399;SDS011;72039;48.812;8.198;2024-01-06T06:38:25;5.65;;;2.47;;
82399;SDS011;72039;48.812;8.198;2024-01-06T06:40:53;5.68;;;2.35;;
82399;SDS011;72039;48.812;8.198;2024-01-06T06:43:19;5.85;;;2.88;;
82399;SDS011;72039;48.812;8.198;2024-01-06T06:45:46;6.10;;;2.67;;
82399;SDS011;72039;48.812;8.198;2024-01-06T06:48:12;4.70;;;2.33;;
82399;SDS011;72039;48.812;8.198;2024-01-06T06:50:39;9.57;;;2.50;;
82399;SDS011;72039;48.812;8.198;2024-01-06T06:53:06;7.07;;;2.75;;
82399;SDS011;72039;48.812;8.198;2024-01-06T06:55:33;4.70;;;2.45;;
82399;SDS011;72039;48.812;8.198;2024-01-06T06:57:58;5.90;;;2.72;;
82399;SDS011;72039;48.812;8.198;2024-01-06T07:00:23;6.78;;;2.70;;
82399;SDS011;72039;48.812;8.198;2024-01-06T07:02:51;6.80;;;3.38;;
82399;SDS011;72039;48.812;8.198;2024-01-06T07:05:16;6.95;;;3.03;;
82399;SDS011;72039;48.812;8.198;2024-01-06T07:07:42;6.22;;;3.20;;
82399;SDS011;72039;48.812;8.198;2024-01-06T07:10:11;10.80;;;3.30;;
82399;SDS011;72039;48.812;8.198;2024-01-06T07:12:40;4.88;;;2.83;;
82399;SDS011;72039;48.812;8.198;2024-01-06T07:15:05;3.97;;;3.05;;
82399;SDS011;72039;48.812;8.198;2024-01-06T07:17:32;4.72;;;3.20;;
82399;SDS011;72039;48.812;8.198;2024-01-06T07:19:59;5.43;;;3.17;;
82399;SDS011;72039;48.812;8.198;2024-01-06T07:22:25;6.43;;;3.40;;
82399;SDS011;72039;48.812;8.198;2024-01-06T07:24:50;6.03;;;3.55;;
82399;SDS011;72039;48.812;8.198;2024-01-06T07:27:18;7.68;;;4.05;;
82399;SDS011;72039;48.812;8.198;2024-01-06T07:30:04;6.68;;;3.50;;
82399;SDS011;72039;48.812;8.198;2024-01-06T07:32:32;5.40;;;3.00;;
82399;SDS011;72039;48.812;8.198;2024-01-06T07:34:58;4.93;;;2.78;;
82399;SDS011;72039;48.812;8.198;2024-01-06T07:37:26;6.20;;;2.95;;
82399;SDS011;72039;48.812;8.198;2024-01-06T07:39:51;6.45;;;3.20;;
82399;SDS011;72039;48.812;8.198;2024-01-06T07:42:17;7.10;;;3.08;;
82399;SDS011;72039;48.812;8.198;2024-01-06T07:44:48;4.13;;;2.97;;
82399;SDS011;72039;48.812;8.198;2024-01-06T07:47:18;4.80;;;3.35;;
82399;SDS011;72039;48.812;8.198;2024-01-06T07:49:43;5.22;;;3.45;;
82399;SDS011;72039;48.812;8.198;2024-01-06T07:52:12;9.55;;;3.80;;
82399;SDS011;72039;48.812;8.198;2024-01-06T07:54:38;7.15;;;4.00;;
82399;SDS011;72039;48.812;8.198;2024-01-06T07:57:04;12.63;;;4.75;;
82399;SDS011;72039;48.812;8.198;2024-01-06T07:59:30;5.50;;;4.38;;
82399;SDS011;72039;48.812;8.198;2024-01-06T08:01:55;10.60;;;5.22;;
82399;SDS011;72039;48.812;8.198;2024-01-06T08:04:21;7.68;;;3.95;;
82399;SDS011;72039;48.812;8.198;2024-01-06T08:06:48;7.45;;;4.40;;
82399;SDS011;72039;48.812;8.198;2024-01-06T08:09:16;9.93;;;4.30;;
82399;SDS011;72039;48.812;8.198;2024-01-06T08:11:43;8.10;;;3.95;;
82399;SDS011;72039;48.812;8.198;2024-01-06T08:14:11;7.45;;;4.90;;
82399;SDS011;72039;48.812;8.198;2024-01-06T08:16:38;9.80;;;4.80;;
82399;SDS011;72039;48.812;8.198;2024-01-06T08:19:04;7.20;;;4.88;;
82399;SDS011;72039;48.812;8.198;2024-01-06T08:21:30;8.27;;;4.90;;
82399;SDS011;72039;48.812;8.198;2024-01-06T08:23:59;7.75;;;4.85;;
82399;SDS011;72039;48.812;8.198;2024-01-06T08:26:25;7.45;;;5.18;;
82399;SDS011;72039;48.812;8.198;2024-01-06T08:28:51;8.75;;;4.88;;
82399;SDS011;72039;48.812;8.198;2024-01-06T08:31:18;9.32;;;4.57;;
82399;SDS011;72039;48.812;8.198;2024-01-06T08:33:44;7.90;;;4.60;;
82399;SDS011;72039;48.812;8.198;2024-01-06T08:36:10;8.10;;;4.97;;
82399;SDS011;72039;48.812;8.198;2024-01-06T08:38:35;7.10;;;4.55;;
82399;SDS011;72039;48.812;8.198;2024-01-06T08:41:01;6.50;;;3.95;;
82399;SDS011;72039;48.812;8.198;2024-01-06T08:43:32;7.20;;;4.90;;
82399;SDS011;72039;48.812;8.198;2024-01-06T08:45:59;6.80;;;4.60;;
82399;SDS011;72039;48.812;8.198;2024-01-06T08:48:25;11.65;;;5.03;;
82399;SDS011;72039;48.812;8.198;2024-01-06T08:50:51;7.25;;;4.20;;
82399;SDS011;72039;48.812;8.198;2024-01-06T08:53:18;6.55;;;4.90;;
82399;SDS011;72039;48.812;8.198;2024-01-06T08:55:43;7.35;;;5.10;;
82399;SDS011;72039;48.812;8.198;2024-01-06T08:58:09;11.95;;;4.80;;
82399;SDS011;72039;48.812;8.198;2024-01-06T09:00:39;10.40;;;4.82;;
82399;SDS011;72039;48.812;8.198;2024-01-06T09:03:04;7.97;;;4.97;;
82399;SDS011;72039;48.812;8.198;2024-01-06T09:05:36;8.85;;;5.13;;
82399;SDS011;72039;48.812;8.198;2024-01-06T09:08:02;8.50;;;5.32;;
82399;SDS011;72039;48.812;8.198;2024-01-06T09:10:32;9.18;;;5.07;;
82399;SDS011;72039;48.812;8.198;2024-01-06T09:12:58;7.35;;;5.38;;
82399;SDS011;72039;48.812;8.198;2024-01-06T09:15:23;8.20;;;5.25;;
82399;SDS011;72039;48.812;8.198;2024-01-06T09:17:49;7.93;;;5.72;;
82399;SDS011;72039;48.812;8.198;2024-01-06T09:20:16;7.65;;;5.22;;
82399;SDS011;72039;48.812;8.198;2024-01-06T09:22:42;10.48;;;5.57;;
82399;SDS011;72039;48.812;8.198;2024-01-06T09:25:08;8.45;;;5.60;;
82399;SDS011;72039;48.812;8.198;2024-01-06T09:27:33;9.70;;;6.22;;
82399;SDS011;72039;48.812;8.198;2024-01-06T09:29:59;7.35;;;5.13;;
82399;SDS011;72039;48.812;8.198;2024-01-06T09:32:44;9.52;;;5.47;;
82399;SDS011;72039;48.812;8.198;2024-01-06T09:35:10;9.40;;;5.38;;
82399;SDS011;72039;48.812;8.198;2024-01-06T09:37:35;9.07;;;6.03;;
82399;SDS011;72039;48.812;8.198;2024-01-06T09:40:01;9.15;;;6.40;;
82399;SDS011;72039;48.812;8.198;2024-01-06T09:42:26;8.90;;;5.68;;
82399;SDS011;72039;48.812;8.198;2024-01-06T09:44:54;9.43;;;5.72;;
82399;SDS011;72039;48.812;8.198;2024-01-06T09:47:22;9.15;;;5.45;;
82399;SDS011;72039;48.812;8.198;2024-01-06T09:49:49;11.77;;;6.10;;
82399;SDS011;72039;48.812;8.198;2024-01-06T09:52:21;9.52;;;5.93;;
82399;SDS011;72039;48.812;8.198;2024-01-06T09:54:52;12.73;;;6.47;;
82399;SDS011;72039;48.812;8.198;2024-01-06T09:57:20;12.77;;;7.13;;
82399;SDS011;72039;48.812;8.198;2024-01-06T09:59:47;10.73;;;6.78;;
82399;SDS011;72039;48.812;8.198;2024-01-06T10:05:26;14.57;;;8.13;;
82399;SDS011;72039;48.812;8.198;2024-01-06T10:07:51;13.75;;;8.10;;
82399;SDS011;72039;48.812;8.198;2024-01-06T10:10:19;12.23;;;7.60;;
82399;SDS011;72039;48.812;8.198;2024-01-06T10:12:52;11.25;;;7.40;;
82399;SDS011;72039;48.812;8.198;2024-01-06T10:15:19;12.70;;;8.50;;
82399;SDS011;72039;48.812;8.198;2024-01-06T10:17:47;13.25;;;8.32;;
82399;SDS011;72039;48.812;8.198;2024-01-06T10:20:13;16.98;;;8.55;;
82399;SDS011;72039;48.812;8.198;2024-01-06T10:22:46;12.63;;;7.65;;
82399;SDS011;72039;48.812;8.198;2024-01-06T10:25:12;12.55;;;7.25;;
82399;SDS011;72039;48.812;8.198;2024-01-06T10:27:40;13.60;;;7.40;;
82399;SDS011;72039;48.812;8.198;2024-01-06T10:30:09;14.07;;;8.93;;
82399;SDS011;72039;48.812;8.198;2024-01-06T10:32:43;18.85;;;10.20;;
82399;SDS011;72039;48.812;8.198;2024-01-06T10:35:09;16.05;;;8.23;;
82399;SDS011;72039;48.812;8.198;2024-01-06T10:37:34;10.68;;;6.63;;
82399;SDS011;72039;48.812;8.198;2024-01-06T10:40:10;12.48;;;7.63;;
82399;SDS011;72039;48.812;8.198;2024-01-06T10:42:37;9.50;;;6.65;;
82399;SDS011;72039;48.812;8.198;2024-01-06T10:45:07;15.18;;;6.47;;
82399;SDS011;72039;48.812;8.198;2024-01-06T10:47:37;11.98;;;7.15;;
82399;SDS011;72039;48.812;8.198;2024-01-06T10:50:04;14.90;;;7.68;;
82399;SDS011;72039;48.812;8.198;2024-01-06T10:52:40;13.70;;;8.52;;
82399;SDS011;72039;48.812;8.198;2024-01-06T10:55:06;16.35;;;8.25;;
82399;SDS011;72039;48.812;8.198;2024-01-06T10:57:32;11.02;;;7.28;;
82399;SDS011;72039;48.812;8.198;2024-01-06T10:59:59;12.55;;;7.00;;
82399;SDS011;72039;48.812;8.198;2024-01-06T11:02:27;10.02;;;6.72;;
82399;SDS011;72039;48.812;8.198;2024-01-06T11:04:54;11.55;;;6.93;;
82399;SDS011;72039;48.812;8.198;2024-01-06T11:07:20;10.50;;;6.75;;
82399;SDS011;72039;48.812;8.198;2024-01-06T11:12:30;10.40;;;5.75;;
82399;SDS011;72039;48.812;8.198;2024-01-06T11:14:55;7.88;;;5.63;;
82399;SDS011;72039;48.812;8.198;2024-01-06T11:17:56;11.07;;;5.85;;
82399;SDS011;72039;48.812;8.198;2024-01-06T11:20:18;10.65;;;6.05;;
82399;SDS011;72039;48.812;8.198;2024-01-06T11:22:46;10.70;;;6.10;;
82399;SDS011;72039;48.812;8.198;2024-01-06T11:25:18;13.50;;;6.20;;
82399;SDS011;72039;48.812;8.198;2024-01-06T11:27:46;9.68;;;6.30;;
82399;SDS011;72039;48.812;8.198;2024-01-06T11:30:25;8.85;;;6.78;;
82399;SDS011;72039;48.812;8.198;2024-01-06T11:32:55;15.50;;;6.45;;
82399;SDS011;72039;48.812;8.198;2024-01-06T11:35:25;8.82;;;5.60;;
82399;SDS011;72039;48.812;8.198;2024-01-06T11:37:52;11.43;;;6.60;;
82399;SDS011;72039;48.812;8.198;2024-01-06T11:42:48;11.15;;;6.10;;
82399;SDS011;72039;48.812;8.198;2024-01-06T11:45:27;9.70;;;5.97;;
82399;SDS011;72039;48.812;8.198;2024-01-06T11:47:56;10.50;;;6.78;;
82399;SDS011;72039;48.812;8.198;2024-01-06T11:52:56;9.25;;;6.70;;
82399;SDS011;72039;48.812;8.198;2024-01-06T11:55:22;10.52;;;6.72;;
82399;SDS011;72039;48.812;8.198;2024-01-06T11:57:50;8.93;;;6.10;;
82399;SDS011;72039;48.812;8.198;2024-01-06T12:00:16;9.65;;;6.25;;
82399;SDS011;72039;48.812;8.198;2024-01-06T12:02:47;9.85;;;6.45;;
82399;SDS011;72039;48.812;8.198;2024-01-06T12:05:15;10.93;;;6.20;;
82399;SDS011;72039;48.812;8.198;2024-01-06T12:07:43;12.50;;;6.63;;
82399;SDS011;72039;48.812;8.198;2024-01-06T12:10:20;12.63;;;7.00;;
82399;SDS011;72039;48.812;8.198;2024-01-06T12:13:05;10.80;;;6.88;;
82399;SDS011;72039;48.812;8.198;2024-01-06T12:15:36;13.52;;;7.72;;
82399;SDS011;72039;48.812;8.198;2024-01-06T12:18:05;15.85;;;7.90;;
82399;SDS011;72039;48.812;8.198;2024-01-06T12:20:31;12.27;;;8.55;;
82399;SDS011;72039;48.812;8.198;2024-01-06T12:22:59;17.77;;;8.40;;
82399;SDS011;72039;48.812;8.198;2024-01-06T12:25:30;13.45;;;7.93;;
82399;SDS011;72039;48.812;8.198;2024-01-06T12:27:58;12.45;;;7.85;;
82399;SDS011;72039;48.812;8.198;2024-01-06T12:30:26;16.67;;;9.43;;
82399;SDS011;72039;48.812;8.198;2024-01-06T12:32:58;17.08;;;9.50;;
82399;SDS011;72039;48.812;8.198;2024-01-06T12:35:24;17.98;;;9.43;;
82399;SDS011;72039;48.812;8.198;2024-01-06T12:37:51;14.65;;;10.20;;
82399;SDS011;72039;48.812;8.198;2024-01-06T12:40:17;18.02;;;9.88;;
82399;SDS011;72039;48.812;8.198;2024-01-06T12:42:46;12.98;;;9.65;;
82399;SDS011;72039;48.812;8.198;2024-01-06T12:45:18;16.40;;;9.68;;
82399;SDS011;72039;48.812;8.198;2024-01-06T12:47:44;13.40;;;7.93;;
82399;SDS011;72039;48.812;8.198;2024-01-06T12:50:09;16.05;;;9.38;;
82399;SDS011;72039;48.812;8.198;2024-01-06T12:52:35;17.92;;;10.73;;
82399;SDS011;72039;48.812;8.198;2024-01-06T12:55:00;16.45;;;8.82;;
82399;SDS011;72039;48.812;8.198;2024-01-06T12:57:28;16.92;;;10.23;;
82399;SDS011;72039;48.812;8.198;2024-01-06T12:59:55;15.95;;;10.20;;
82399;SDS011;72039;48.812;8.198;2024-01-06T13:02:31;14.77;;;9.30;;
82399;SDS011;72039;48.812;8.198;2024-01-06T13:04:59;17.23;;;10.32;;
82399;SDS011;72039;48.812;8.198;2024-01-06T13:07:24;24.10;;;11.90;;
82399;SDS011;72039;48.812;8.198;2024-01-06T13:09:50;16.98;;;10.15;;
82399;SDS011;72039;48.812;8.198;2024-01-06T13:12:16;26.70;;;13.80;;
82399;SDS011;72039;48.812;8.198;2024-01-06T13:14:47;19.50;;;10.50;;
82399;SDS011;72039;48.812;8.198;2024-01-06T13:17:15;20.30;;;12.07;;
82399;SDS011;72039;48.812;8.198;2024-01-06T13:19:40;19.55;;;10.60;;
82399;SDS011;72039;48.812;8.198;2024-01-06T13:22:05;18.38;;;11.35;;
82399;SDS011;72039;48.812;8.198;2024-01-06T13:24:31;17.83;;;10.90;;
82399;SDS011;72039;48.812;8.198;2024-01-06T13:27:01;17.15;;;8.52;;
82399;SDS011;72039;48.812;8.198;2024-01-06T13:29:28;15.45;;;9.77;;
82399;SDS011;72039;48.812;8.198;2024-01-06T13:32:00;13.85;;;8.98;;
82399;SDS011;72039;48.812;8.198;2024-01-06T13:34:28;18.08;;;11.40;;
82399;SDS011;72039;48.812;8.198;2024-01-06T13:36:55;17.52;;;9.48;;
82399;SDS011;72039;48.812;8.198;2024-01-06T13:39:22;19.42;;;10.68;;
82399;SDS011;72039;48.812;8.198;2024-01-06T13:41:51;18.25;;;9.90;;
82399;SDS011;72039;48.812;8.198;2024-01-06T13:44:19;20.95;;;10.65;;
82399;SDS011;72039;48.812;8.198;2024-01-06T13:46:45;16.88;;;10.25;;
82399;SDS011;72039;48.812;8.198;2024-01-06T13:49:12;21.27;;;12.05;;
82399;SDS011;72039;48.812;8.198;2024-01-06T13:51:40;20.20;;;11.60;;
82399;SDS011;72039;48.812;8.198;2024-01-06T13:54:05;21.55;;;12.15;;
82399;SDS011;72039;48.812;8.198;2024-01-06T13:56:35;17.30;;;11.10;;
82399;SDS011;72039;48.812;8.198;2024-01-06T13:59:02;19.23;;;11.68;;
82399;SDS011;72039;48.812;8.198;2024-01-06T14:01:27;15.57;;;11.00;;
82399;SDS011;72039;48.812;8.198;2024-01-06T14:03:53;16.33;;;11.07;;
82399;SDS011;72039;48.812;8.198;2024-01-06T14:06:25;16.08;;;10.50;;
82399;SDS011;72039;48.812;8.198;2024-01-06T14:08:58;20.20;;;11.25;;
82399;SDS011;72039;48.812;8.198;2024-01-06T14:11:24;17.25;;;10.93;;
82399;SDS011;72039;48.812;8.198;2024-01-06T14:13:50;18.85;;;12.48;;
82399;SDS011;72039;48.812;8.198;2024-01-06T14:16:17;18.67;;;11.30;;
82399;SDS011;72039;48.812;8.198;2024-01-06T14:18:45;22.67;;;13.57;;
82399;SDS011;72039;48.812;8.198;2024-01-06T14:21:11;23.58;;;13.15;;
82399;SDS011;72039;48.812;8.198;2024-01-06T14:23:40;22.85;;;12.63;;
82399;SDS011;72039;48.812;8.198;2024-01-06T14:26:05;16.27;;;10.95;;
82399;SDS011;72039;48.812;8.198;2024-01-06T14:28:38;16.65;;;10.50;;
82399;SDS011;72039;48.812;8.198;2024-01-06T14:31:03;17.00;;;10.70;;
82399;SDS011;72039;48.812;8.198;2024-01-06T14:33:29;18.27;;;11.35;;
82399;SDS011;72039;48.812;8.198;2024-01-06T14:35:54;17.08;;;10.52;;
82399;SDS011;72039;48.812;8.198;2024-01-06T14:38:20;21.67;;;11.00;;
82399;SDS011;72039;48.812;8.198;2024-01-06T14:40:45;18.88;;;12.05;;
82399;SDS011;72039;48.812;8.198;2024-01-06T14:43:11;14.77;;;10.68;;
82399;SDS011;72039;48.812;8.198;2024-01-06T14:45:36;17.17;;;10.10;;
82399;SDS011;72039;48.812;8.198;2024-01-06T14:48:02;19.83;;;10.43;;
82399;SDS011;72039;48.812;8.198;2024-01-06T14:50:30;31.00;;;13.32;;
82399;SDS011;72039;48.812;8.198;2024-01-06T14:52:55;21.60;;;12.85;;
82399;SDS011;72039;48.812;8.198;2024-01-06T14:55:21;15.60;;;10.32;;